Time;durP1;ratioP1;P1;durP2;ratioP2;P2;SDS_P1;SDS_P2;PMS_P1;PMS_P2;Temp;Humidity;BMP_temperature;BMP_pressure;BME280_temperature;BME280_humidity;BME280_pressure;Samples;Min_cycle;Max_cycle;Signal;HPM_P1;HPM_P2
2023/03/30 00:01:13;;;;;;;7.20;5.30;;;6.60;99.90;;;;;;5113129;28;20220;-88
2023/03/30 00:03:43;;;;;;;5.63;4.95;;;6.60;99.90;;;;;;5113871;28;20233;-88
2023/03/30 00:06:19;;;;;;;7.97;4.53;;;6.50;99.90;;;;;;5114062;28;20226;-88
2023/03/30 00:08:48;;;;;;;4.63;4.22;;;6.50;99.90;;;;;;5113359;28;20259;-88
2023/03/30 00:11:17;;;;;;;5.30;4.57;;;6.50;99.90;;;;;;5113466;28;20254;-88
2023/03/30 00:13:49;;;;;;;11.38;5.88;;;6.50;99.90;;;;;;5113096;28;20207;-88
2023/03/30 00:16:19;;;;;;;5.85;4.68;;;6.40;99.90;;;;;;5113072;28;20268;-88
2023/03/30 00:18:49;;;;;;;4.93;4.47;;;6.30;99.90;;;;;;5112798;28;20190;-88
2023/03/30 00:21:20;;;;;;;4.88;4.10;;;6.30;99.90;;;;;;5113405;28;20223;-88
2023/03/30 00:23:49;;;;;;;5.32;4.85;;;6.30;99.90;;;;;;5113080;28;20211;-88
2023/03/30 00:26:17;;;;;;;8.00;4.88;;;6.30;99.90;;;;;;5113195;28;20249;-88
2023/03/30 00:28:46;;;;;;;5.00;4.60;;;6.20;99.90;;;;;;5112733;28;20207;-88
2023/03/30 00:31:15;;;;;;;4.38;4.03;;;6.30;99.90;;;;;;5113482;28;20254;-88
2023/03/30 00:33:44;;;;;;;5.72;4.70;;;6.30;99.90;;;;;;5113590;28;20282;-89
2023/03/30 00:36:14;;;;;;;7.15;5.53;;;6.20;99.90;;;;;;5113133;28;20208;-90
2023/03/30 00:38:47;;;;;;;5.80;5.25;;;6.20;99.90;;;;;;5112643;28;20202;-90
2023/03/30 00:41:16;;;;;;;5.80;5.30;;;6.30;99.90;;;;;;5113518;28;20220;-89
2023/03/30 00:43:59;;;;;;;5.63;4.93;;;6.30;99.90;;;;;;5113956;28;20211;-90
2023/03/30 00:46:29;;;;;;;5.85;4.95;;;6.20;99.90;;;;;;5113181;28;20250;-89
2023/03/30 00:49:03;;;;;;;5.45;4.95;;;6.30;99.90;;;;;;5112825;28;20200;-89
2023/03/30 00:51:34;;;;;;;6.03;5.22;;;6.30;99.90;;;;;;5112895;28;20219;-89
2023/03/30 00:54:08;;;;;;;8.50;4.88;;;6.20;99.90;;;;;;5112970;28;20196;-89
2023/03/30 00:56:37;;;;;;;6.03;5.43;;;6.20;99.90;;;;;;5113373;28;20203;-89
2023/03/30 00:59:06;;;;;;;4.75;4.35;;;6.20;99.90;;;;;;5112888;28;20256;-89
2023/03/30 01:01:37;;;;;;;7.88;5.82;;;6.20;99.90;;;;;;5112786;28;20223;-89
2023/03/30 01:04:08;;;;;;;6.10;5.50;;;6.20;99.90;;;;;;5112866;28;20203;-89
2023/03/30 01:06:39;;;;;;;5.28;4.78;;;6.10;99.90;;;;;;5112209;28;20196;-88
2023/03/30 01:09:10;;;;;;;5.30;4.80;;;6.10;99.90;;;;;;5115801;28;20239;-87
2023/03/30 01:11:39;;;;;;;5.40;4.88;;;6.10;99.90;;;;;;5114924;28;20239;-90
2023/03/30 01:14:11;;;;;;;5.47;4.55;;;6.10;99.90;;;;;;5098235;28;20208;-91
2023/03/30 01:16:51;;;;;;;5.28;4.78;;;6.20;99.90;;;;;;5116868;28;20211;-91
2023/03/30 01:19:51;;;;;;;5.05;4.53;;;6.10;99.90;;;;;;5116924;28;20210;-88
2023/03/30 01:22:54;;;;;;;5.15;4.75;;;6.20;99.90;;;;;;5117174;28;20228;-89
2023/03/30 01:26:07;;;;;;;8.13;4.78;;;6.20;99.90;;;;;;5116850;28;20359;-88
2023/03/30 01:28:45;;;;;;;8.00;4.28;;;6.20;99.90;;;;;;5116534;28;20199;-89
2023/03/30 01:31:40;;;;;;;6.40;4.90;;;6.20;99.90;;;;;;5116725;28;20231;-89
2023/03/30 01:34:43;;;;;;;5.60;4.63;;;6.20;99.90;;;;;;5083887;28;20240;-88
2023/03/30 01:37:54;;;;;;;6.07;5.25;;;6.20;99.90;;;;;;5096595;28;20196;-89
2023/03/30 01:40:31;;;;;;;5.00;4.60;;;6.20;99.90;;;;;;4997552;28;20318;-89
2023/03/30 01:43:07;;;;;;;5.93;4.85;;;6.30;99.90;;;;;;5096114;28;20230;-89
2023/03/30 01:45:44;;;;;;;5.15;4.53;;;6.30;99.90;;;;;;5106347;28;20280;-87
2023/03/30 01:48:18;;;;;;;6.05;4.50;;;6.30;99.90;;;;;;5114342;28;20198;-87
2023/03/30 01:50:54;;;;;;;6.13;5.43;;;6.40;99.90;;;;;;5116565;28;20223;-87
2023/03/30 01:53:28;;;;;;;5.85;5.22;;;6.40;99.90;;;;;;5116490;28;20213;-87
2023/03/30 01:56:03;;;;;;;5.38;4.88;;;6.40;99.90;;;;;;5116256;28;20194;-87
2023/03/30 01:58:37;;;;;;;5.00;4.50;;;6.40;99.90;;;;;;5115927;28;20195;-87
2023/03/30 02:01:08;;;;;;;4.90;4.50;;;6.50;99.90;;;;;;5116586;28;20233;-90
2023/03/30 02:03:40;;;;;;;4.50;4.20;;;6.50;99.90;;;;;;5117828;28;20199;-89
2023/03/30 02:06:24;;;;;;;5.38;4.88;;;6.50;99.90;;;;;;5118882;28;20219;-89
2023/03/30 02:08:54;;;;;;;4.72;4.32;;;6.50;99.90;;;;;;5117365;28;20204;-90
2023/03/30 02:11:29;;;;;;;10.55;5.35;;;6.50;99.90;;;;;;5116608;28;20216;-90
2023/03/30 02:13:59;;;;;;;5.25;4.75;;;6.50;99.90;;;;;;5097103;28;20207;-89
2023/03/30 02:16:34;;;;;;;4.82;4.38;;;6.50;99.90;;;;;;5116189;28;20207;-89
2023/03/30 02:19:03;;;;;;;5.68;5.07;;;6.40;99.90;;;;;;5115053;28;20210;-89
2023/03/30 02:21:31;;;;;;;5.25;4.55;;;6.40;99.90;;;;;;5115868;28;20224;-89
2023/03/30 02:24:02;;;;;;;5.07;4.57;;;6.30;99.90;;;;;;5115610;28;20208;-89
2023/03/30 02:26:33;;;;;;;5.10;4.65;;;6.30;99.90;;;;;;5115586;28;20220;-89
2023/03/30 02:29:02;;;;;;;4.65;4.35;;;6.20;99.90;;;;;;5114996;28;20204;-86
2023/03/30 02:31:31;;;;;;;5.22;4.57;;;6.20;99.90;;;;;;5115597;28;20227;-86
2023/03/30 02:34:14;;;;;;;4.40;4.00;;;6.20;99.90;;;;;;5115726;28;20208;-86
2023/03/30 02:37:08;;;;;;;7.97;5.78;;;6.10;99.90;;;;;;5114740;28;20196;-86
2023/03/30 02:39:50;;;;;;;6.22;4.82;;;6.00;99.90;;;;;;5114700;28;20208;-85
2023/03/30 02:42:40;;;;;;;5.30;4.90;;;5.90;99.90;;;;;;5115628;28;20258;-89
2023/03/30 02:45:20;;;;;;;8.55;4.97;;;5.80;99.90;;;;;;5115491;28;20208;-88
2023/03/30 02:48:00;;;;;;;6.43;5.53;;;5.80;99.90;;;;;;5114479;28;20287;-87
2023/03/30 02:50:36;;;;;;;6.93;6.20;;;5.80;99.90;;;;;;5094679;28;20232;-87
2023/03/30 02:53:13;;;;;;;5.78;5.28;;;5.90;99.90;;;;;;5094794;28;20261;-87
2023/03/30 02:55:51;;;;;;;5.57;5.07;;;5.90;99.90;;;;;;5094445;28;20192;-87
2023/03/30 02:58:30;;;;;;;9.68;6.60;;;5.80;99.90;;;;;;5102063;28;20203;-88
2023/03/30 03:01:03;;;;;;;5.80;5.22;;;5.80;99.90;;;;;;5114758;28;20272;-87
2023/03/30 03:03:36;;;;;;;5.53;4.70;;;5.90;99.90;;;;;;5115159;28;20291;-87
2023/03/30 03:06:08;;;;;;;5.97;5.38;;;5.90;99.90;;;;;;5115272;28;20299;-88
2023/03/30 03:08:39;;;;;;;5.53;5.00;;;5.90;99.90;;;;;;5115092;28;20204;-85
2023/03/30 03:11:11;;;;;;;4.50;4.18;;;5.90;99.90;;;;;;5115451;28;20219;-85
2023/03/30 03:13:41;;;;;;;5.90;5.35;;;5.90;99.90;;;;;;5115158;28;20204;-86
2023/03/30 03:16:11;;;;;;;5.93;5.38;;;5.80;99.90;;;;;;5115413;28;20219;-85
2023/03/30 03:18:40;;;;;;;6.25;5.75;;;5.80;99.90;;;;;;5114696;28;20200;-86
2023/03/30 03:21:10;;;;;;;5.88;5.32;;;5.80;99.90;;;;;;5114233;28;20215;-86
2023/03/30 03:23:38;;;;;;;7.32;6.47;;;5.80;99.90;;;;;;5115106;28;20200;-86
2023/03/30 03:26:07;;;;;;;7.03;6.35;;;5.90;99.90;;;;;;5115017;28;20212;-86
2023/03/30 03:28:36;;;;;;;7.30;6.00;;;5.80;99.90;;;;;;5114338;28;20253;-87
2023/03/30 03:31:06;;;;;;;6.63;6.03;;;5.90;99.90;;;;;;5113882;28;20243;-87
2023/03/30 03:33:35;;;;;;;8.13;5.70;;;5.80;99.90;;;;;;5115172;28;20212;-85
2023/03/30 03:36:06;;;;;;;6.05;5.55;;;5.90;99.90;;;;;;5114975;28;20227;-86
2023/03/30 03:38:35;;;;;;;7.50;6.80;;;5.90;99.90;;;;;;5114611;28;20213;-85
2023/03/30 03:41:03;;;;;;;7.97;6.55;;;5.90;99.90;;;;;;5114737;28;20238;-85
2023/03/30 03:43:32;;;;;;;6.70;6.10;;;5.90;99.90;;;;;;5113895;28;20220;-89
2023/03/30 03:46:00;;;;;;;7.05;6.00;;;5.90;99.90;;;;;;5114334;28;20208;-89
2023/03/30 03:48:30;;;;;;;6.93;6.43;;;5.90;99.90;;;;;;5114148;28;20219;-89
2023/03/30 03:50:59;;;;;;;7.03;5.88;;;5.90;99.90;;;;;;5114848;28;20262;-89
2023/03/30 03:53:30;;;;;;;7.28;6.68;;;5.90;99.90;;;;;;5110987;28;20200;-90
2023/03/30 03:56:00;;;;;;;7.50;6.25;;;6.00;99.90;;;;;;5114653;28;20280;-89
2023/03/30 03:58:30;;;;;;;7.35;6.65;;;5.90;99.90;;;;;;5112586;28;20268;-88
2023/03/30 04:00:59;;;;;;;8.25;7.18;;;6.00;99.90;;;;;;5113154;28;20231;-89
2023/03/30 04:03:30;;;;;;;6.20;5.70;;;6.00;99.90;;;;;;5113910;28;20211;-90
2023/03/30 04:06:01;;;;;;;6.05;5.60;;;6.00;99.90;;;;;;5114011;28;20276;-89
2023/03/30 04:08:29;;;;;;;6.28;5.80;;;6.10;99.90;;;;;;5112533;28;20290;-86
2023/03/30 04:11:08;;;;;;;6.70;6.10;;;6.10;99.90;;;;;;5113561;28;20227;-86
2023/03/30 04:13:37;;;;;;;6.78;6.18;;;6.00;99.90;;;;;;5112955;28;20264;-86
2023/03/30 04:16:08;;;;;;;6.40;5.90;;;6.00;99.90;;;;;;5113345;28;20207;-87
2023/03/30 04:18:40;;;;;;;6.60;6.00;;;5.90;99.90;;;;;;5112994;28;20253;-86
2023/03/30 04:21:11;;;;;;;5.28;4.68;;;5.90;99.90;;;;;;5113042;28;20227;-86
2023/03/30 04:23:44;;;;;;;5.70;5.20;;;5.90;99.90;;;;;;5113538;28;20202;-87
2023/03/30 04:26:14;;;;;;;6.03;5.50;;;5.80;99.90;;;;;;5113886;28;20219;-88
2023/03/30 04:28:45;;;;;;;6.53;5.93;;;5.70;99.90;;;;;;5113182;28;20211;-86
2023/03/30 04:31:14;;;;;;;7.47;6.32;;;5.60;99.90;;;;;;5113965;28;20231;-86
2023/03/30 04:33:49;;;;;;;6.10;5.60;;;5.50;99.90;;;;;;5113469;28;20199;-86
2023/03/30 04:36:20;;;;;;;7.57;5.78;;;5.50;99.90;;;;;;5113027;28;20306;-86
2023/03/30 04:38:57;;;;;;;7.28;6.65;;;5.50;99.90;;;;;;5103359;28;20196;-85
2023/03/30 04:41:32;;;;;;;7.22;5.53;;;5.50;99.90;;;;;;5092968;28;20224;-86
2023/03/30 04:44:05;;;;;;;6.00;5.53;;;5.50;99.90;;;;;;5093661;28;20283;-81
2023/03/30 04:46:33;;;;;;;11.18;4.72;;;5.50;99.90;;;;;;5113125;28;20222;-83
2023/03/30 04:49:05;;;;;;;5.57;5.00;;;5.40;99.90;;;;;;5112306;28;20204;-82
2023/03/30 04:51:33;;;;;;;4.95;4.55;;;5.40;99.90;;;;;;5112993;28;20224;-82
2023/03/30 04:54:02;;;;;;;5.82;5.32;;;5.40;99.90;;;;;;5112567;28;20221;-81
2023/03/30 04:56:30;;;;;;;5.55;5.15;;;5.40;99.90;;;;;;5112589;28;20199;-87
2023/03/30 04:58:59;;;;;;;5.65;5.13;;;5.40;99.90;;;;;;5112482;28;20233;-83
2023/03/30 05:01:27;;;;;;;7.60;4.75;;;5.40;99.90;;;;;;5112551;28;20281;-81
2023/03/30 05:03:56;;;;;;;5.97;5.38;;;5.40;99.90;;;;;;5112513;28;20286;-82
2023/03/30 05:06:28;;;;;;;4.38;4.07;;;5.40;99.90;;;;;;5112806;28;20200;-83
2023/03/30 05:08:57;;;;;;;5.72;5.20;;;5.50;99.90;;;;;;5112155;28;20220;-83
2023/03/30 05:11:25;;;;;;;7.97;5.75;;;5.50;99.90;;;;;;5112428;28;20257;-83
2023/03/30 05:13:54;;;;;;;8.52;5.80;;;5.50;99.90;;;;;;5097336;28;20233;-82
2023/03/30 05:16:22;;;;;;;6.30;5.70;;;5.50;99.90;;;;;;5092304;28;20227;-83
2023/03/30 05:18:50;;;;;;;5.15;4.70;;;5.50;99.90;;;;;;5091712;28;20208;-84
2023/03/30 05:21:19;;;;;;;6.65;5.97;;;5.50;99.90;;;;;;5092043;28;20228;-84
2023/03/30 05:23:49;;;;;;;6.22;5.63;;;5.50;99.90;;;;;;5092140;28;20227;-84
2023/03/30 05:26:17;;;;;;;5.13;4.72;;;5.60;99.90;;;;;;5092334;28;20205;-84
2023/03/30 05:28:46;;;;;;;6.07;5.38;;;5.50;99.90;;;;;;5091601;28;20224;-84
2023/03/30 05:31:15;;;;;;;6.60;6.00;;;5.60;99.90;;;;;;5090958;28;20258;-84
2023/03/30 05:33:43;;;;;;;5.78;5.28;;;5.60;99.90;;;;;;5092409;28;20201;-80
2023/03/30 05:36:12;;;;;;;6.25;5.65;;;5.60;99.90;;;;;;5091751;28;20234;-80
2023/03/30 05:38:41;;;;;;;8.35;5.35;;;5.60;99.90;;;;;;5091349;28;20227;-80
2023/03/30 05:41:11;;;;;;;8.32;4.90;;;5.60;99.90;;;;;;5091856;28;20224;-84
2023/03/30 05:43:39;;;;;;;7.63;5.90;;;5.60;99.90;;;;;;5091982;28;20204;-84
2023/03/30 05:46:08;;;;;;;19.58;6.07;;;5.60;99.90;;;;;;5091795;28;20196;-84
2023/03/30 05:48:36;;;;;;;5.85;5.35;;;5.60;99.90;;;;;;5090955;28;20280;-84
2023/03/30 05:51:05;;;;;;;5.90;5.30;;;5.70;99.90;;;;;;5092048;28;20224;-84
2023/03/30 05:53:33;;;;;;;6.30;5.70;;;5.70;99.90;;;;;;5091817;28;20196;-84
2023/03/30 05:56:02;;;;;;;5.82;5.22;;;5.70;99.90;;;;;;5095497;28;20207;-84
2023/03/30 05:58:32;;;;;;;4.50;4.20;;;5.70;99.90;;;;;;5095338;28;20250;-84
2023/03/30 06:01:00;;;;;;;5.35;4.85;;;5.70;99.90;;;;;;5096079;28;20224;-84
2023/03/30 06:03:29;;;;;;;6.53;5.82;;;5.80;99.90;;;;;;5095567;28;20291;-84
2023/03/30 06:06:00;;;;;;;4.60;4.20;;;5.80;99.90;;;;;;5095696;28;20212;-84
2023/03/30 06:08:28;;;;;;;6.85;5.15;;;5.80;99.90;;;;;;5094727;28;20220;-84
2023/03/30 06:10:57;;;;;;;5.13;4.60;;;5.90;99.90;;;;;;5095675;28;20252;-84
2023/03/30 06:13:26;;;;;;;4.65;4.30;;;6.00;99.90;;;;;;5112125;28;20196;-84
2023/03/30 06:15:56;;;;;;;6.05;5.50;;;6.00;99.90;;;;;;5115921;28;20200;-84
2023/03/30 06:18:27;;;;;;;5.25;4.53;;;6.00;99.90;;;;;;5115528;28;20207;-84
2023/03/30 06:20:56;;;;;;;5.20;4.70;;;6.10;99.90;;;;;;5115573;28;20280;-84
2023/03/30 06:23:25;;;;;;;5.60;4.82;;;6.20;99.90;;;;;;5115600;28;20256;-84
2023/03/30 06:25:56;;;;;;;5.80;5.20;;;6.30;99.90;;;;;;5115655;28;20283;-84
2023/03/30 06:28:25;;;;;;;8.68;5.32;;;6.30;99.90;;;;;;5114866;28;20291;-80
2023/03/30 06:30:53;;;;;;;5.45;4.78;;;6.40;99.90;;;;;;5114137;28;20270;-80
2023/03/30 06:33:24;;;;;;;6.35;5.65;;;6.40;99.90;;;;;;5112411;28;20216;-81
2023/03/30 06:35:53;;;;;;;5.20;4.38;;;6.40;99.90;;;;;;5112458;28;20207;-80
2023/03/30 06:38:23;;;;;;;5.93;5.28;;;6.40;99.90;;;;;;5112978;28;20295;-84
2023/03/30 06:40:51;;;;;;;4.65;4.25;;;6.50;99.90;;;;;;5113021;28;20312;-84
2023/03/30 06:43:22;;;;;;;5.53;5.05;;;6.50;99.90;;;;;;5112574;28;20207;-84
2023/03/30 06:45:51;;;;;;;4.70;4.28;;;6.60;99.90;;;;;;5112861;28;20215;-84
2023/03/30 06:48:22;;;;;;;5.43;4.93;;;6.60;99.90;;;;;;5112109;28;20220;-84
2023/03/30 06:50:53;;;;;;;5.15;4.65;;;6.60;99.90;;;;;;5112545;28;20242;-84
2023/03/30 06:53:22;;;;;;;6.38;5.78;;;6.70;99.90;;;;;;5112396;28;20215;-80
2023/03/30 06:55:52;;;;;;;5.45;4.95;;;6.70;99.90;;;;;;5112630;28;20210;-80
2023/03/30 06:58:20;;;;;;;8.52;5.47;;;6.70;99.90;;;;;;5112131;28;20211;-85
2023/03/30 07:00:49;;;;;;;4.63;4.22;;;6.70;99.90;;;;;;5112337;28;20232;-80
2023/03/30 07:03:20;;;;;;;5.97;5.38;;;6.70;99.90;;;;;;5112640;28;20211;-84
2023/03/30 07:05:49;;;;;;;5.07;4.57;;;6.80;99.90;;;;;;5111492;28;20208;-80
2023/03/30 07:08:20;;;;;;;4.97;4.57;;;6.80;99.90;;;;;;5111580;28;20227;-85
2023/03/30 07:10:48;;;;;;;4.80;4.35;;;6.90;99.90;;;;;;5112395;28;20319;-85
2023/03/30 07:13:17;;;;;;;5.38;4.65;;;6.90;99.90;;;;;;5096441;28;20205;-85
2023/03/30 07:15:47;;;;;;;5.88;5.15;;;6.90;99.90;;;;;;5107346;28;20240;-85
2023/03/30 07:18:16;;;;;;;11.43;8.63;;;7.00;99.90;;;;;;5112606;28;20285;-84
2023/03/30 07:20:45;;;;;;;25.88;5.68;;;7.00;99.90;;;;;;5112509;28;20239;-85
2023/03/30 07:23:15;;;;;;;4.82;4.43;;;7.00;99.90;;;;;;5112613;28;20207;-85
2023/03/30 07:25:46;;;;;;;6.18;5.40;;;7.00;99.90;;;;;;5112395;28;20218;-85
2023/03/30 07:28:15;;;;;;;5.53;5.03;;;7.10;99.90;;;;;;5111626;28;20284;-84
2023/03/30 07:30:44;;;;;;;4.93;4.43;;;7.10;99.90;;;;;;5111048;28;20220;-84
2023/03/30 07:33:13;;;;;;;5.00;4.60;;;7.10;99.90;;;;;;5111753;28;20203;-84
2023/03/30 07:35:45;;;;;;;5.78;5.22;;;7.20;99.90;;;;;;5112162;28;20211;-80
2023/03/30 07:38:18;;;;;;;7.78;4.97;;;7.10;99.90;;;;;;5111134;28;20294;-80
2023/03/30 07:40:48;;;;;;;6.97;5.03;;;7.20;99.90;;;;;;5111774;28;20220;-84
2023/03/30 07:43:16;;;;;;;7.75;5.55;;;7.20;99.90;;;;;;5111429;28;20234;-84
2023/03/30 07:45:45;;;;;;;5.47;4.97;;;7.30;99.90;;;;;;5111584;28;20204;-84
2023/03/30 07:48:13;;;;;;;5.93;5.28;;;7.30;99.90;;;;;;5111001;28;20265;-84
2023/03/30 07:50:42;;;;;;;5.47;4.78;;;7.40;99.90;;;;;;5112294;28;20310;-84
2023/03/30 07:53:11;;;;;;;9.50;5.90;;;7.50;99.90;;;;;;5112272;28;20233;-84
2023/03/30 07:55:40;;;;;;;5.35;4.95;;;7.50;99.90;;;;;;5111790;28;20211;-83
2023/03/30 07:58:10;;;;;;;5.28;4.78;;;7.60;99.90;;;;;;5111168;28;20204;-84
2023/03/30 08:00:39;;;;;;;6.05;5.35;;;7.70;99.90;;;;;;5111618;28;20223;-84
2023/03/30 08:03:08;;;;;;;7.38;4.75;;;7.80;99.90;;;;;;5111148;28;20208;-84
2023/03/30 08:05:37;;;;;;;7.28;5.15;;;7.90;99.90;;;;;;5111683;28;20219;-80
2023/03/30 08:08:06;;;;;;;5.90;5.30;;;8.00;99.90;;;;;;5110496;28;20242;-80
2023/03/30 08:10:35;;;;;;;5.60;5.15;;;8.10;99.90;;;;;;5110996;28;20247;-80
2023/03/30 08:13:04;;;;;;;7.88;5.50;;;8.30;99.90;;;;;;5111134;28;20211;-84
2023/03/30 08:15:33;;;;;;;11.10;6.03;;;8.40;99.90;;;;;;5097768;28;20234;-84
2023/03/30 08:18:06;;;;;;;6.20;5.60;;;8.60;99.90;;;;;;5090177;28;20216;-84
2023/03/30 08:20:37;;;;;;;9.57;6.35;;;8.70;99.90;;;;;;5090713;28;20273;-80
2023/03/30 08:23:06;;;;;;;5.65;5.07;;;8.90;99.90;;;;;;5090585;28;20243;-84
2023/03/30 08:25:35;;;;;;;5.60;4.95;;;8.90;99.90;;;;;;5090565;28;20236;-84
2023/03/30 08:28:04;;;;;;;4.80;4.40;;;8.90;99.90;;;;;;5090137;28;20239;-84
2023/03/30 08:30:35;;;;;;;6.00;4.50;;;9.00;99.90;;;;;;5089983;28;20293;-84
2023/03/30 08:33:04;;;;;;;6.85;5.32;;;9.00;99.90;;;;;;5090912;28;20300;-80
2023/03/30 08:35:32;;;;;;;4.22;3.92;;;9.00;99.90;;;;;;5092758;28;20212;-80
2023/03/30 08:38:02;;;;;;;6.60;5.00;;;9.10;99.90;;;;;;5092559;28;20204;-80
2023/03/30 08:40:31;;;;;;;6.03;4.97;;;9.20;99.90;;;;;;5092589;28;20240;-80
2023/03/30 08:43:17;;;;;;;5.30;4.82;;;9.20;99.90;;;;;;5093277;28;20253;-80
2023/03/30 08:45:49;;;;;;;4.40;4.00;;;9.40;99.90;;;;;;5093383;28;20286;-80
2023/03/30 08:48:20;;;;;;;12.98;5.78;;;9.50;99.90;;;;;;5091784;28;20273;-80
2023/03/30 08:50:54;;;;;;;4.78;4.32;;;9.60;99.90;;;;;;5092188;28;20309;-80
2023/03/30 08:53:25;;;;;;;11.50;5.00;;;9.80;99.90;;;;;;5092673;28;20242;-80
2023/03/30 08:55:57;;;;;;;5.00;4.57;;;9.90;99.90;;;;;;5092604;28;20250;-80
2023/03/30 08:58:34;;;;;;;4.80;4.40;;;10.10;99.90;;;;;;5092684;28;20277;-84
2023/03/30 09:01:13;;;;;;;6.65;4.22;;;10.30;99.90;;;;;;5092781;28;20259;-84
2023/03/30 09:03:50;;;;;;;4.80;4.20;;;10.80;99.90;;;;;;5092573;28;20220;-84
2023/03/30 09:06:27;;;;;;;5.30;4.80;;;11.30;99.90;;;;;;5092245;28;20282;-80
2023/03/30 09:08:56;;;;;;;4.90;4.32;;;11.80;99.90;;;;;;5091745;28;20299;-80
2023/03/30 09:11:32;;;;;;;5.03;4.55;;;12.30;99.90;;;;;;5092680;28;20291;-80
2023/03/30 09:14:04;;;;;;;6.45;4.50;;;12.50;99.90;;;;;;5112058;28;20214;-84
2023/03/30 09:16:43;;;;;;;4.68;4.28;;;12.70;99.90;;;;;;5091983;28;20265;-84
2023/03/30 09:19:17;;;;;;;5.47;4.20;;;12.70;99.90;;;;;;5092352;28;20212;-84
2023/03/30 09:21:46;;;;;;;6.13;4.50;;;12.30;99.90;;;;;;5092243;28;20309;-84
2023/03/30 09:24:21;;;;;;;4.97;4.57;;;12.10;99.90;;;;;;5092472;28;20252;-84
2023/03/30 09:26:55;;;;;;;4.43;4.03;;;11.90;99.90;;;;;;5091836;28;20218;-84
2023/03/30 09:29:27;;;;;;;5.50;4.97;;;11.80;99.90;;;;;;5094137;28;20239;-84
2023/03/30 09:32:10;;;;;;;5.45;4.95;;;11.60;99.90;;;;;;5095017;28;20254;-80
2023/03/30 09:34:45;;;;;;;4.60;4.20;;;11.40;99.90;;;;;;5096158;28;20230;-80
2023/03/30 09:37:17;;;;;;;4.57;4.18;;;11.30;99.90;;;;;;5096122;28;20250;-80
2023/03/30 09:39:47;;;;;;;5.03;4.38;;;11.20;99.90;;;;;;5096412;28;20223;-80
2023/03/30 09:42:24;;;;;;;5.35;4.03;;;11.20;99.90;;;;;;5096245;28;20259;-80
2023/03/30 09:44:55;;;;;;;7.85;5.22;;;11.20;99.90;;;;;;5095783;28;20218;-84
2023/03/30 09:47:30;;;;;;;6.07;5.05;;;11.10;99.90;;;;;;5095430;28;20249;-84
2023/03/30 09:50:01;;;;;;;5.55;5.03;;;11.10;99.90;;;;;;5095706;28;20250;-84
2023/03/30 09:52:35;;;;;;;5.30;4.55;;;11.00;99.90;;;;;;5096226;28;20270;-84
2023/03/30 09:55:24;;;;;;;6.68;5.13;;;10.90;99.90;;;;;;5095846;28;20215;-83
2023/03/30 09:57:54;;;;;;;4.75;4.35;;;11.00;99.90;;;;;;5095365;28;20283;-84
2023/03/30 10:00:26;;;;;;;5.15;4.65;;;11.00;99.90;;;;;;5095805;28;20297;-84
2023/03/30 10:02:58;;;;;;;7.20;5.43;;;10.90;99.90;;;;;;5096171;28;20215;-84
2023/03/30 10:05:27;;;;;;;5.68;4.97;;;10.90;99.90;;;;;;5095745;28;20247;-83
2023/03/30 10:07:57;;;;;;;8.15;5.68;;;10.90;99.90;;;;;;5095112;28;20223;-83
2023/03/30 10:10:33;;;;;;;5.18;4.75;;;10.80;99.90;;;;;;5095279;28;20242;-83
2023/03/30 10:13:06;;;;;;;5.40;4.90;;;10.90;99.90;;;;;;5109134;28;20218;-83
2023/03/30 10:15:38;;;;;;;4.78;4.30;;;10.80;99.90;;;;;;5101386;28;20223;-85
2023/03/30 10:18:23;;;;;;;4.93;4.53;;;10.90;99.90;;;;;;5094664;28;20239;-79
2023/03/30 10:20:54;;;;;;;4.85;4.40;;;11.00;99.90;;;;;;5095104;28;20271;-80
2023/03/30 10:23:32;;;;;;;8.18;4.63;;;10.90;99.90;;;;;;5094984;28;20218;-80
2023/03/30 10:26:02;;;;;;;4.80;4.30;;;11.00;99.90;;;;;;5094983;28;20219;-79
2023/03/30 10:28:34;;;;;;;10.45;6.00;;;11.10;99.90;;;;;;5094531;28;20307;-80
2023/03/30 10:31:07;;;;;;;5.78;5.13;;;11.10;99.90;;;;;;5093304;28;20235;-80
2023/03/30 10:33:44;;;;;;;6.60;5.88;;;11.20;99.90;;;;;;5095006;28;20220;-80
2023/03/30 10:36:15;;;;;;;7.30;5.68;;;11.20;99.90;;;;;;5094979;28;20233;-83
2023/03/30 10:38:45;;;;;;;6.22;5.13;;;11.30;99.90;;;;;;5094557;28;20223;-83
2023/03/30 10:41:19;;;;;;;5.97;5.38;;;11.30;99.90;;;;;;5094580;28;20238;-83
2023/03/30 10:43:49;;;;;;;5.10;4.60;;;11.30;99.90;;;;;;5095097;28;20229;-80
2023/03/30 10:46:21;;;;;;;11.25;5.93;;;11.40;99.90;;;;;;5094464;28;20295;-80
2023/03/30 10:49:04;;;;;;;4.82;4.38;;;11.40;99.90;;;;;;5094232;28;20300;-80
2023/03/30 10:51:48;;;;;;;6.63;5.65;;;11.40;99.90;;;;;;5094713;28;20304;-80
2023/03/30 10:54:26;;;;;;;5.38;4.80;;;11.40;99.90;;;;;;5094806;28;20242;-80
2023/03/30 10:56:59;;;;;;;5.88;5.22;;;11.40;99.90;;;;;;5094259;28;20245;-80
2023/03/30 10:59:46;;;;;;;6.70;5.07;;;11.40;99.90;;;;;;5094666;28;20307;-80
2023/03/30 11:02:28;;;;;;;5.65;4.35;;;11.40;99.90;;;;;;5094572;28;20243;-80
2023/03/30 11:05:08;;;;;;;5.88;4.38;;;11.30;99.90;;;;;;5094130;28;20222;-80
2023/03/30 11:07:42;;;;;;;5.68;4.90;;;11.40;99.90;;;;;;5094073;28;20227;-80
2023/03/30 11:10:16;;;;;;;6.95;5.75;;;11.40;99.90;;;;;;5093754;28;20235;-80
2023/03/30 11:12:49;;;;;;;7.07;5.80;;;11.40;99.90;;;;;;5105837;28;20232;-80
2023/03/30 11:15:25;;;;;;;6.53;5.47;;;11.30;99.90;;;;;;5102880;28;20229;-80
2023/03/30 11:18:00;;;;;;;5.88;5.28;;;11.40;99.90;;;;;;5093853;28;20222;-80
2023/03/30 11:20:33;;;;;;;5.75;5.25;;;11.40;99.90;;;;;;5093849;28;20243;-80
2023/03/30 11:23:11;;;;;;;8.15;4.80;;;11.50;99.90;;;;;;5094187;28;20219;-80
2023/03/30 11:25:47;;;;;;;6.50;5.68;;;11.50;99.90;;;;;;5094289;28;20247;-80
2023/03/30 11:28:21;;;;;;;6.28;5.13;;;11.60;99.90;;;;;;5093207;28;20249;-80
2023/03/30 11:30:54;;;;;;;7.55;5.72;;;11.60;99.90;;;;;;5093603;28;20296;-80
2023/03/30 11:33:29;;;;;;;5.60;5.05;;;11.50;99.90;;;;;;5093779;28;20219;-80
2023/03/30 11:36:04;;;;;;;6.50;5.15;;;11.40;99.90;;;;;;5093775;28;20271;-80
2023/03/30 11:38:41;;;;;;;6.30;5.22;;;11.40;99.90;;;;;;5093509;28;20219;-80
2023/03/30 11:41:14;;;;;;;9.23;6.22;;;11.40;99.90;;;;;;5093715;28;20301;-80
2023/03/30 11:43:43;;;;;;;7.13;5.40;;;11.40;99.90;;;;;;5093369;28;20223;-80
2023/03/30 11:46:20;;;;;;;5.70;5.18;;;11.40;99.90;;;;;;5093301;28;20225;-80
2023/03/30 11:49:10;;;;;;;6.93;6.10;;;11.50;99.90;;;;;;5092892;28;20222;-80
2023/03/30 11:51:56;;;;;;;28.13;5.37;;;11.50;99.90;;;;;;5093521;28;20239;-80
2023/03/30 11:55:09;;;;;;;7.15;5.57;;;11.50;99.90;;;;;;5093896;28;20215;-80
2023/03/30 11:57:44;;;;;;;6.30;5.30;;;11.40;99.90;;;;;;5057196;28;20223;-80
2023/03/30 12:00:48;;;;;;;7.18;5.75;;;11.40;99.90;;;;;;5095362;28;20222;-79
2023/03/30 12:03:36;;;;;;;7.43;5.97;;;11.40;99.90;;;;;;5080432;28;20210;-78
2023/03/30 12:06:17;;;;;;;6.78;5.70;;;11.80;99.90;;;;;;5113683;28;20275;-78
2023/03/30 12:09:19;;;;;;;8.45;4.80;;;12.10;99.90;;;;;;5113419;28;20234;-78
2023/03/30 12:11:51;;;;;;;4.97;4.47;;;12.40;99.90;;;;;;5108607;28;20307;-78
2023/03/30 12:14:41;;;;;;;6.05;4.85;;;12.80;99.90;;;;;;5095378;28;20280;-78
2023/03/30 12:17:24;;;;;;;5.65;5.10;;;13.00;99.90;;;;;;5112972;28;20238;-78
2023/03/30 12:19:58;;;;;;;6.13;5.25;;;13.10;99.90;;;;;;5112825;28;20233;-78
2023/03/30 12:22:35;;;;;;;6.10;5.50;;;13.20;99.90;;;;;;5112989;28;20192;-78
2023/03/30 12:25:19;;;;;;;7.72;4.75;;;13.20;99.90;;;;;;5113248;28;20222;-81
2023/03/30 12:27:58;;;;;;;7.30;4.50;;;13.20;99.90;;;;;;5111677;28;20221;-81
2023/03/30 12:30:28;;;;;;;5.85;4.50;;;13.30;99.90;;;;;;5096557;28;20279;-81
2023/03/30 12:33:02;;;;;;;6.25;5.35;;;13.30;99.90;;;;;;5092963;28;20232;-78
2023/03/30 12:35:56;;;;;;;5.45;4.88;;;13.30;99.90;;;;;;5093105;28;20208;-78
2023/03/30 12:38:37;;;;;;;5.72;5.10;;;13.30;99.90;;;;;;5092822;28;20212;-78
2023/03/30 12:41:16;;;;;;;8.38;4.55;;;13.40;99.90;;;;;;5092468;28;20221;-82
2023/03/30 12:44:18;;;;;;;5.88;4.32;;;13.40;99.90;;;;;;5099282;28;20206;-78
2023/03/30 12:46:57;;;;;;;6.28;4.90;;;13.30;99.90;;;;;;5095495;28;20261;-78
2023/03/30 12:49:34;;;;;;;5.57;5.00;;;13.20;99.90;;;;;;5112537;28;20207;-78
2023/03/30 12:52:12;;;;;;;7.93;4.95;;;13.10;99.90;;;;;;5112446;28;20250;-82
2023/03/30 12:55:12;;;;;;;6.00;5.07;;;13.00;99.90;;;;;;5112746;28;20256;-82
2023/03/30 12:57:57;;;;;;;4.78;4.35;;;12.90;99.90;;;;;;5112042;28;20203;-82
2023/03/30 13:00:48;;;;;;;5.53;5.03;;;12.70;99.90;;;;;;5113338;28;20219;-82
2023/03/30 13:03:31;;;;;;;6.35;5.43;;;12.40;99.90;;;;;;5112885;28;20211;-81
2023/03/30 13:06:02;;;;;;;6.00;5.35;;;12.30;99.90;;;;;;5117067;28;20267;-80
2023/03/30 13:08:35;;;;;;;6.63;5.72;;;12.00;99.90;;;;;;5116457;28;20208;-81
2023/03/30 13:11:15;;;;;;;5.47;5.07;;;11.80;99.90;;;;;;5116753;28;20227;-80
2023/03/30 13:13:56;;;;;;;9.13;5.32;;;11.60;99.90;;;;;;5116870;28;20231;-80
2023/03/30 13:17:11;;;;;;;7.07;6.30;;;11.60;99.90;;;;;;5116570;28;20207;-80
2023/03/30 13:20:02;;;;;;;7.22;5.93;;;11.70;99.90;;;;;;5080399;28;20202;-80
2023/03/30 13:22:32;;;;;;;6.13;5.63;;;11.70;99.90;;;;;;5116412;28;20230;-80
2023/03/30 13:25:05;;;;;;;6.55;5.88;;;11.50;99.90;;;;;;5116478;28;20203;-80
2023/03/30 13:27:36;;;;;;;6.60;5.65;;;11.50;99.90;;;;;;5116290;28;20204;-78